createdAt,value
2024-02-17T00:02:44.576Z,0.10
2024-02-17T00:05:47.619Z,0.10
2024-02-17T00:08:50.627Z,0.20
2024-02-17T00:11:54.422Z,0.20
2024-02-17T00:14:59.244Z,0.20
2024-02-17T00:18:03.436Z,0.15
2024-02-17T00:21:06.870Z,0.30
2024-02-17T00:24:10.432Z,0.20
2024-02-17T00:27:13.597Z,0.35
2024-02-17T00:30:19.607Z,0.30
2024-02-17T00:33:23.130Z,0.55
2024-02-17T00:36:26.432Z,0.40
2024-02-17T00:39:48.608Z,0.43
2024-02-17T00:42:51.610Z,0.10
2024-02-17T00:45:54.572Z,0.40
2024-02-17T00:48:57.771Z,0.30
2024-02-17T00:52:00.996Z,0.37
2024-02-17T00:55:06.616Z,0.33
2024-02-17T00:58:09.959Z,0.30
2024-02-17T01:01:20.422Z,0.13
2024-02-17T01:04:29.723Z,0.30
2024-02-17T01:07:33.120Z,0.30
2024-02-17T01:10:40.439Z,0.37
2024-02-17T01:13:45.111Z,0.20
2024-02-17T01:16:48.349Z,0.40
2024-02-17T01:19:51.504Z,0.33
2024-02-17T01:22:54.771Z,0.40
2024-02-17T01:25:59.494Z,0.20
2024-02-17T01:29:03.367Z,0.20
2024-02-17T01:32:07.770Z,0.40
2024-02-17T01:35:11.768Z,0.30
2024-02-17T01:38:14.803Z,0.47
2024-02-17T01:41:19.733Z,0.20
2024-02-17T01:44:23.585Z,0.57
2024-02-17T01:47:26.748Z,0.57
2024-02-17T01:50:30.482Z,0.40
2024-02-17T01:53:34.060Z,0.50
2024-02-17T01:56:39.045Z,0.47
2024-02-17T01:59:45.175Z,0.20
2024-02-17T02:02:49.098Z,0.45
2024-02-17T02:05:52.577Z,0.65
2024-02-17T02:08:55.831Z,0.30
2024-02-17T02:12:00.236Z,0.38
2024-02-17T02:15:04.625Z,0.30
2024-02-17T02:18:08.252Z,0.20
2024-02-17T02:21:11.559Z,0.17
2024-02-17T02:24:14.853Z,0.20
2024-02-17T02:27:19.175Z,0.40
2024-02-17T02:30:22.978Z,0.28
2024-02-17T02:33:26.641Z,0.35
2024-02-17T02:36:30.309Z,0.43
2024-02-17T02:39:34.180Z,0.60
2024-02-17T02:42:39.089Z,0.30
2024-02-17T02:45:42.729Z,0.57
2024-02-17T02:48:46.629Z,0.57
2024-02-17T02:51:50.287Z,0.75
2024-02-17T02:54:54.120Z,0.50
2024-02-17T02:57:59.416Z,0.30
2024-02-17T03:01:03.080Z,0.57
2024-02-17T03:07:10.471Z,0.30
2024-02-17T03:10:14.220Z,0.80
2024-02-17T03:13:19.959Z,1.17
2024-02-17T03:16:26.740Z,0.88
2024-02-17T03:19:31.521Z,0.90
2024-02-17T03:22:35.993Z,0.80
2024-02-17T03:25:39.505Z,1.08
2024-02-17T03:28:45.394Z,1.07
2024-02-17T03:31:49.013Z,1.17
2024-02-17T03:34:52.773Z,0.90
2024-02-17T03:37:57.458Z,1.27
2024-02-17T03:41:00.927Z,1.15
2024-02-17T03:44:06.750Z,0.80
2024-02-17T03:47:12.502Z,1.52
2024-02-17T03:50:16.279Z,1.38
2024-02-17T03:53:20.227Z,1.20
2024-02-17T03:56:24.049Z,0.80
2024-02-17T04:02:32.607Z,1.40
2024-02-17T04:05:38.284Z,1.42
2024-02-17T04:08:42.955Z,1.38
2024-02-17T04:11:46.727Z,1.10
2024-02-17T04:14:51.744Z,1.30
2024-02-17T04:17:55.818Z,1.40
2024-02-17T04:24:03.042Z,1.85
2024-02-17T04:27:08.664Z,1.13
2024-02-17T04:30:14.273Z,1.10
2024-02-17T04:33:18.161Z,1.15
2024-02-17T04:36:22.316Z,1.13
2024-02-17T04:42:29.119Z,1.17
2024-02-17T04:45:35.569Z,1.48
2024-02-17T04:48:39.205Z,1.45
2024-02-17T04:51:42.781Z,1.88
2024-02-17T04:54:46.537Z,2.28
2024-02-17T04:57:50.165Z,1.75
2024-02-17T05:00:56.662Z,1.77
2024-02-17T05:04:01.818Z,2.08
2024-02-17T05:07:06.317Z,2.22
2024-02-17T05:10:10.417Z,1.48
2024-02-17T05:13:13.962Z,1.63
2024-02-17T05:16:19.030Z,1.05
2024-02-17T05:19:22.508Z,1.25
2024-02-17T05:22:26.454Z,1.70
2024-02-17T05:25:30.045Z,1.70
2024-02-17T05:28:55.430Z,1.08
2024-02-17T05:31:58.888Z,2.20
2024-02-17T05:35:02.762Z,1.67
2024-02-17T05:38:06.462Z,2.15
2024-02-17T05:41:09.920Z,1.70
2024-02-17T05:44:14.939Z,2.00
2024-02-17T05:47:18.510Z,2.08
2024-02-17T05:50:22.383Z,2.55
2024-02-17T05:53:25.752Z,2.30
2024-02-17T05:56:29.736Z,2.35
2024-02-17T05:59:34.487Z,1.42
2024-02-17T06:02:38.059Z,2.20
2024-02-17T06:05:41.501Z,2.60
2024-02-17T06:08:45.295Z,1.98
2024-02-17T06:11:50.634Z,2.33
2024-02-17T06:14:56.031Z,2.20
2024-02-17T06:18:13.400Z,2.10
2024-02-17T06:21:23.324Z,1.60
2024-02-17T06:24:27.308Z,2.13
2024-02-17T06:27:31.208Z,2.38
2024-02-17T06:30:36.236Z,1.60
2024-02-17T06:33:39.908Z,1.42
2024-02-17T06:36:44.279Z,1.48
2024-02-17T06:39:47.914Z,1.42
2024-02-17T06:42:51.549Z,1.13
2024-02-17T06:45:56.693Z,1.38
2024-02-17T06:49:00.870Z,1.17
2024-02-17T06:52:04.538Z,0.90
2024-02-17T06:55:09.637Z,0.75
2024-02-17T06:58:13.231Z,1.20
2024-02-17T07:01:18.289Z,1.42
2024-02-17T07:04:22.353Z,0.65
2024-02-17T07:07:25.997Z,0.90
2024-02-17T07:10:31.050Z,0.60
2024-02-17T07:13:35.626Z,0.98
2024-02-17T07:19:44.752Z,0.38
2024-02-17T07:22:48.498Z,0.60
2024-02-17T07:25:53.013Z,0.43
2024-02-17T07:28:58.003Z,0.50
2024-02-17T07:32:03.269Z,1.13
2024-02-17T07:35:08.077Z,0.93
2024-02-17T07:38:12.431Z,0.85
2024-02-17T07:41:15.994Z,0.73
2024-02-17T07:44:22.026Z,0.65
2024-02-17T07:47:27.060Z,0.65
2024-02-17T07:50:30.969Z,0.75
2024-02-17T07:53:34.472Z,0.93
2024-02-17T07:56:38.245Z,0.73
2024-02-17T07:59:41.746Z,0.90
2024-02-17T08:02:48.067Z,0.90
2024-02-17T08:05:51.983Z,0.43
2024-02-17T08:08:55.495Z,0.22
2024-02-17T08:11:58.764Z,0.40
2024-02-17T08:15:02.264Z,0.50
2024-02-17T08:18:08.401Z,0.70
2024-02-17T08:21:12.536Z,0.68
2024-02-17T08:24:16.168Z,0.38
2024-02-17T08:27:21.052Z,0.22
2024-02-17T08:30:25.079Z,0.50
2024-02-17T08:33:30.117Z,0.77
2024-02-17T08:36:33.749Z,0.70
2024-02-17T08:39:37.842Z,0.35
2024-02-17T08:42:42.792Z,0.68
2024-02-17T08:45:46.578Z,0.50
2024-02-17T08:48:51.691Z,0.43
2024-02-17T08:51:55.337Z,0.35
2024-02-17T08:54:58.791Z,0.65
2024-02-17T08:58:02.226Z,0.80
2024-02-17T09:01:07.130Z,0.20
2024-02-17T09:04:12.048Z,0.52
2024-02-17T09:07:15.728Z,0.28
2024-02-17T09:10:19.885Z,0.30
2024-02-17T09:13:23.242Z,0.38
2024-02-17T09:16:28.769Z,0.47
2024-02-17T09:19:33.794Z,0.43
2024-02-17T09:22:38.119Z,0.60
2024-02-17T09:28:45.542Z,0.77
2024-02-17T09:31:49.268Z,0.63
2024-02-17T09:34:55.663Z,0.63
2024-02-17T09:37:59.786Z,0.57
2024-02-17T09:41:03.596Z,0.55
2024-02-17T09:44:07.279Z,0.73
2024-02-17T09:47:11.122Z,0.70
2024-02-17T09:50:19.524Z,0.50
2024-02-17T09:53:25.248Z,0.70
2024-02-17T09:56:29.506Z,0.60
2024-02-17T09:59:32.973Z,0.50
2024-02-17T10:02:37.359Z,0.53
2024-02-17T10:05:43.282Z,0.35
2024-02-17T10:08:48.488Z,0.45
2024-02-17T10:11:52.019Z,0.60
2024-02-17T10:14:56.175Z,0.90
2024-02-17T10:18:00.048Z,0.55
2024-02-17T10:21:05.532Z,0.50
2024-02-17T10:24:09.609Z,0.65
2024-02-17T10:27:14.031Z,0.68
2024-02-17T10:30:21.121Z,0.88
2024-02-17T10:33:24.864Z,0.77
2024-02-17T10:36:30.578Z,1.00
2024-02-17T10:39:34.647Z,0.90
2024-02-17T10:42:38.777Z,0.70
2024-02-17T10:45:42.870Z,1.02
2024-02-17T10:48:53.185Z,0.65
2024-02-17T10:52:04.844Z,0.47
2024-02-17T10:55:13.540Z,0.90
2024-02-17T10:58:19.229Z,0.70
2024-02-17T11:01:27.638Z,0.98
2024-02-17T11:04:31.763Z,0.88
2024-02-17T11:07:36.763Z,0.80
2024-02-17T11:10:42.744Z,0.93
2024-02-17T11:13:46.223Z,1.25
2024-02-17T11:16:49.750Z,1.10
2024-02-17T11:20:07.489Z,1.05
2024-02-17T11:23:12.699Z,0.70
2024-02-17T11:26:28.866Z,1.00
2024-02-17T11:29:41.261Z,0.73
2024-02-17T11:32:45.845Z,0.90
2024-02-17T11:35:51.324Z,0.93
2024-02-17T11:38:57.963Z,0.73
2024-02-17T11:42:02.748Z,0.57
2024-02-17T11:45:07.537Z,1.08
2024-02-17T11:48:11.035Z,0.80
2024-02-17T11:51:15.212Z,0.80
2024-02-17T11:57:24.817Z,0.77
2024-02-17T12:00:28.387Z,0.80
2024-02-17T12:03:32.957Z,0.73
2024-02-17T12:06:36.815Z,0.60
2024-02-17T12:09:41.558Z,0.85
2024-02-17T12:12:45.001Z,0.60
2024-02-17T12:15:48.779Z,0.70
2024-02-17T12:18:54.197Z,0.93
2024-02-17T12:21:58.057Z,0.75
2024-02-17T12:25:04.589Z,0.38
2024-02-17T12:28:09.689Z,0.57
2024-02-17T12:31:13.295Z,0.70
2024-02-17T12:34:27.627Z,0.50
2024-02-17T12:37:31.248Z,0.50
2024-02-17T12:40:56.983Z,0.43
2024-02-17T12:44:00.967Z,0.35
2024-02-17T12:47:14.725Z,0.47
2024-02-17T12:50:21.696Z,0.32
2024-02-17T12:53:26.735Z,0.30
2024-02-17T12:56:32.154Z,0.40
2024-02-17T12:59:35.637Z,0.30
2024-02-17T13:02:39.432Z,0.57
2024-02-17T13:05:46.377Z,0.70
2024-02-17T13:08:51.791Z,0.70
2024-02-17T13:12:14.444Z,0.30
2024-02-17T13:15:21.494Z,0.82
2024-02-17T13:18:25.220Z,0.50
2024-02-17T13:21:30.719Z,0.82
2024-02-17T13:24:34.274Z,0.52
2024-02-17T13:27:44.222Z,0.53
2024-02-17T13:30:48.339Z,0.73
2024-02-17T13:33:51.938Z,0.47
2024-02-17T13:36:55.351Z,0.40
2024-02-17T13:40:01.861Z,0.60
2024-02-17T13:43:07.510Z,0.50
2024-02-17T13:46:11.339Z,0.95
2024-02-17T13:49:15.368Z,0.40
2024-02-17T13:55:22.448Z,0.47
2024-02-17T13:58:27.424Z,0.22
2024-02-17T14:01:31.348Z,0.52
2024-02-17T14:04:38.450Z,0.63
2024-02-17T14:07:41.720Z,0.40
2024-02-17T14:10:45.257Z,0.52
2024-02-17T14:13:49.941Z,0.60
2024-02-17T14:16:55.225Z,0.50
2024-02-17T14:19:59.903Z,0.85
2024-02-17T14:23:03.492Z,0.43
2024-02-17T14:26:08.934Z,0.38
2024-02-17T14:29:13.800Z,0.40
2024-02-17T14:32:37.433Z,0.50
2024-02-17T14:35:40.699Z,0.57
2024-02-17T14:38:43.958Z,0.50
2024-02-17T14:41:47.281Z,0.20
2024-02-17T14:44:50.798Z,0.50
2024-02-17T14:47:55.894Z,0.50
2024-02-17T14:50:59.739Z,0.45
2024-02-17T14:54:03.259Z,0.68
2024-02-17T14:57:07.217Z,0.50
2024-02-17T15:00:11.546Z,0.70
2024-02-17T15:03:16.689Z,0.85
2024-02-17T15:06:42.729Z,0.57
2024-02-17T15:09:47.304Z,0.55
2024-02-17T15:12:51.036Z,0.55
2024-02-17T15:15:54.482Z,0.68
2024-02-17T15:18:58.137Z,0.40
2024-02-17T15:22:03.085Z,0.30
2024-02-17T15:25:07.441Z,0.45
2024-02-17T15:28:10.934Z,0.60
2024-02-17T15:31:14.274Z,0.35
2024-02-17T15:34:17.944Z,1.17
2024-02-17T15:37:24.149Z,0.40
2024-02-17T15:40:27.518Z,0.90
2024-02-17T15:43:33.514Z,0.40
2024-02-17T15:46:36.997Z,0.57
2024-02-17T15:49:40.663Z,0.57
2024-02-17T15:52:47.668Z,0.88
2024-02-17T15:56:12.726Z,0.63
2024-02-17T15:59:17.978Z,0.57
2024-02-17T16:02:21.309Z,0.40
2024-02-17T16:05:25.062Z,0.60
2024-02-17T16:08:28.740Z,0.70
2024-02-17T16:11:34.000Z,0.75
2024-02-17T16:14:39.921Z,0.60
2024-02-17T16:17:43.316Z,0.68
2024-02-17T16:20:54.185Z,0.50
2024-02-17T16:23:58.716Z,0.50
2024-02-17T16:27:04.396Z,0.63
2024-02-17T16:30:28.200Z,0.50
2024-02-17T16:33:36.072Z,0.68
2024-02-17T16:36:40.000Z,0.50
2024-02-17T16:39:43.694Z,0.70
2024-02-17T16:42:46.941Z,0.80
2024-02-17T16:45:52.492Z,1.30
2024-02-17T16:48:56.209Z,0.80
2024-02-17T16:51:59.677Z,1.58
2024-02-17T16:55:03.398Z,1.37
2024-02-17T16:58:09.991Z,1.65
2024-02-17T17:01:16.986Z,1.15
2024-02-17T17:04:20.764Z,2.63
2024-02-17T17:07:24.937Z,1.33
2024-02-17T17:10:28.776Z,0.80
2024-02-17T17:13:33.033Z,0.68
2024-02-17T17:16:38.785Z,0.88
2024-02-17T17:19:42.381Z,1.08
2024-02-17T17:22:47.765Z,0.50
2024-02-17T17:25:51.485Z,0.47
2024-02-17T17:28:55.142Z,0.87
2024-02-17T17:32:00.018Z,1.02
2024-02-17T17:35:04.058Z,0.80
2024-02-17T17:38:07.771Z,0.65
2024-02-17T17:41:11.506Z,0.80
2024-02-17T17:44:17.744Z,0.55
2024-02-17T17:47:22.751Z,0.68
2024-02-17T17:50:48.515Z,0.40
2024-02-17T17:53:51.723Z,0.68
2024-02-17T17:56:55.201Z,0.53
2024-02-17T17:59:58.743Z,3.63
2024-02-17T18:03:02.020Z,1.60
2024-02-17T18:06:09.960Z,1.67
2024-02-17T18:09:13.587Z,1.10
2024-02-17T18:12:17.121Z,0.70
2024-02-17T18:15:20.555Z,0.75
2024-02-17T18:18:24.391Z,1.08
2024-02-17T18:21:29.578Z,1.08
2024-02-17T18:24:32.909Z,1.20
2024-02-17T18:27:36.730Z,1.35
2024-02-17T18:30:40.324Z,1.05
2024-02-17T18:33:45.430Z,0.95
2024-02-17T18:36:50.640Z,1.38
2024-02-17T18:39:54.249Z,1.13
2024-02-17T18:42:58.324Z,1.20
2024-02-17T18:46:04.332Z,1.55
2024-02-17T18:49:08.597Z,1.30
2024-02-17T18:52:14.134Z,1.45
2024-02-17T18:55:17.704Z,1.35
2024-02-17T18:58:21.531Z,1.35
2024-02-17T19:01:25.432Z,1.20
2024-02-17T19:07:33.686Z,1.35
2024-02-17T19:10:37.241Z,1.48
2024-02-17T19:13:40.754Z,1.17
2024-02-17T19:16:44.969Z,1.35
2024-02-17T19:20:10.340Z,1.63
2024-02-17T19:23:18.307Z,1.10
2024-02-17T19:26:21.489Z,1.40
2024-02-17T19:29:24.750Z,1.50
2024-02-17T19:32:28.372Z,1.30
2024-02-17T19:35:33.639Z,1.75
2024-02-17T19:38:37.203Z,1.20
2024-02-17T19:41:40.773Z,1.40
2024-02-17T19:44:44.435Z,1.70
2024-02-17T19:47:48.257Z,1.85
2024-02-17T19:50:54.144Z,3.28
2024-02-17T19:53:57.788Z,4.97
2024-02-17T19:57:01.526Z,4.65
2024-02-17T20:00:06.382Z,4.82
2024-02-17T20:03:10.316Z,5.63
2024-02-17T20:06:15.616Z,5.22
2024-02-17T20:09:19.395Z,6.32
2024-02-17T20:12:26.753Z,6.38
2024-02-17T20:15:30.675Z,6.90
2024-02-17T20:18:34.643Z,6.22
2024-02-17T20:24:45.868Z,6.20
2024-02-17T20:27:51.150Z,6.72
2024-02-17T20:30:54.967Z,6.25
2024-02-17T20:37:06.275Z,4.95
2024-02-17T20:40:13.791Z,4.70
2024-02-17T20:43:18.270Z,5.40
2024-02-17T20:46:22.273Z,5.45
2024-02-17T20:52:31.301Z,6.13
2024-02-17T20:55:35.550Z,5.57
2024-02-17T20:58:39.496Z,6.75
2024-02-17T21:01:43.060Z,7.20
2024-02-17T21:04:47.684Z,6.00
2024-02-17T21:07:54.274Z,7.68
2024-02-17T21:10:58.470Z,6.40
2024-02-17T21:14:02.240Z,6.25
2024-02-17T21:17:06.570Z,5.88
2024-02-17T21:20:12.072Z,5.97
2024-02-17T21:23:17.273Z,5.90
2024-02-17T21:26:21.408Z,6.40
2024-02-17T21:32:29.106Z,6.47
2024-02-17T21:35:32.841Z,6.97
2024-02-17T21:38:38.197Z,6.80
2024-02-17T21:41:41.999Z,6.97
2024-02-17T21:44:45.266Z,5.57
2024-02-17T21:47:48.907Z,5.97
2024-02-17T21:50:52.764Z,6.22
2024-02-17T21:53:58.008Z,6.13
2024-02-17T21:57:01.864Z,6.80
2024-02-17T22:00:06.509Z,5.82
2024-02-17T22:03:10.764Z,6.28
2024-02-17T22:06:15.092Z,6.50
2024-02-17T22:09:20.543Z,6.45
2024-02-17T22:12:24.547Z,6.35
2024-02-17T22:18:32.127Z,5.20
2024-02-17T22:21:35.746Z,6.20
2024-02-17T22:24:41.362Z,6.50
2024-02-17T22:27:45.453Z,7.20
2024-02-17T22:30:49.634Z,6.93
2024-02-17T22:33:53.374Z,6.15
2024-02-17T22:36:57.514Z,7.70
2024-02-17T22:40:03.371Z,6.88
2024-02-17T22:43:07.193Z,6.82
2024-02-17T22:49:14.498Z,7.47
2024-02-17T22:52:18.668Z,8.13
2024-02-17T22:55:23.560Z,7.90
2024-02-17T22:58:27.877Z,7.95
2024-02-17T23:01:32.736Z,7.25
2024-02-17T23:04:36.898Z,7.55
2024-02-17T23:07:41.004Z,8.77
2024-02-17T23:10:46.750Z,6.85
2024-02-17T23:13:50.792Z,7.57
2024-02-17T23:19:59.170Z,6.85
2024-02-17T23:23:04.015Z,7.20
2024-02-17T23:26:11.377Z,6.70
2024-02-17T23:29:14.990Z,7.22
2024-02-17T23:32:19.959Z,6.55
2024-02-17T23:35:24.273Z,7.30
2024-02-17T23:38:28.948Z,7.95
2024-02-17T23:41:34.759Z,7.78
2024-02-17T23:44:38.771Z,7.30
2024-02-17T23:50:50.835Z,8.07
2024-02-17T23:53:54.974Z,6.93
2024-02-17T23:57:00.617Z,7.82
